Time;durP1;ratioP1;P1;durP2;ratioP2;P2;SDS_P1;SDS_P2;PMS_P1;PMS_P2;Temp;Humidity;BMP_temperature;BMP_pressure;BME280_temperature;BME280_humidity;BME280_pressure;Samples;Min_cycle;Max_cycle;Signal;HPM_P1;HPM_P2
2022/06/17 00:01:12;;;;;;;;;;;;;;;16.76;74.63;100730.47;2676137;86;20171;-87
2022/06/17 00:05:13;;;;;;;;;;;;;;;16.68;74.65;100735.79;2653184;86;20125;-87
2022/06/17 00:09:16;;;;;;;;;;;;;;;16.58;75.11;100737.22;2716122;86;20475;-87
2022/06/17 00:13:19;;;;;;;;;;;;;;;16.55;75.09;100740.21;2677460;86;20116;-86
2022/06/17 00:17:20;;;;;;;;;;;;;;;16.48;75.38;100745.83;2690571;87;20133;-88
2022/06/17 00:21:30;;;;;;;;;;;;;;;16.42;75.75;100750.83;2700116;86;20099;-87
2022/06/17 00:25:34;;;;;;;;;;;;;;;16.35;76.25;100759.16;2673429;87;20440;-88
2022/06/17 00:29:35;;;;;;;;;;;;;;;16.25;76.62;100758.36;2691898;86;20157;-87
2022/06/17 00:33:36;;;;;;;;;;;;;;;16.26;77.20;100760.05;2688818;85;20165;-88
2022/06/17 00:37:39;;;;;;;;;;;;;;;16.28;77.28;100751.34;2713343;86;20881;-87
2022/06/17 00:41:42;;;;;;;;;;;;;;;16.25;77.45;100763.25;2695325;86;20191;-88
2022/06/17 00:45:50;;;;;;;;;;;;;;;16.23;77.63;100764.38;2674821;86;20152;-88
2022/06/17 00:49:54;;;;;;;;;;;;;;;16.17;77.78;100755.09;2663782;87;20104;-88
2022/06/17 00:54:01;;;;;;;;;;;;;;;16.15;78.05;100759.77;2690506;87;20118;-88
2022/06/17 00:58:06;;;;;;;;;;;;;;;16.03;77.95;100760.48;2646634;87;20142;-87
2022/06/17 01:02:07;;;;;;;;;;;;;;;15.94;78.45;100766.24;2655752;87;20143;-88
2022/06/17 01:06:11;;;;;;;;;;;;;;;15.90;78.13;100758.16;2669408;87;20112;-88
2022/06/17 01:10:15;;;;;;;;;;;;;;;15.85;78.28;100765.27;2667418;87;20164;-87
2022/06/17 01:14:18;;;;;;;;;;;;;;;15.84;78.14;100756.88;2673867;86;20201;-87
2022/06/17 01:18:19;;;;;;;;;;;;;;;15.84;77.90;100759.55;2656750;87;20112;-88
2022/06/17 01:22:33;;;;;;;;;;;;;;;15.87;77.91;100754.88;2682355;87;20155;-88
2022/06/17 01:26:35;;;;;;;;;;;;;;;15.87;77.70;100761.59;2673442;87;20127;-88
2022/06/17 01:30:39;;;;;;;;;;;;;;;15.87;77.71;100764.27;2700664;86;20451;-87
2022/06/17 01:34:40;;;;;;;;;;;;;;;15.89;77.61;100760.97;2661789;87;20145;-87
2022/06/17 01:38:44;;;;;;;;;;;;;;;15.89;77.42;100758.29;2676521;87;20140;-87
2022/06/17 01:42:46;;;;;;;;;;;;;;;15.84;77.35;100750.68;2658150;86;20131;-87
2022/06/17 01:46:52;;;;;;;;;;;;;;;15.80;77.33;100748.78;2680816;86;20137;-88
2022/06/17 01:50:55;;;;;;;;;;;;;;;15.73;77.89;100752.20;2686008;87;20524;-86
2022/06/17 01:55:00;;;;;;;;;;;;;;;15.58;78.49;100747.31;2665446;87;20413;-88
2022/06/17 01:59:13;;;;;;;;;;;;;;;15.48;78.83;100746.02;2672262;86;20180;-88
2022/06/17 02:03:28;;;;;;;;;;;;;;;15.43;79.02;100750.98;2670514;87;20124;-88
2022/06/17 02:07:42;;;;;;;;;;;;;;;15.34;79.09;100753.20;2663539;87;20115;-89
2022/06/17 02:11:43;;;;;;;;;;;;;;;15.25;78.89;100752.25;2658061;88;20116;-88
2022/06/17 02:15:44;;;;;;;;;;;;;;;15.23;79.23;100755.53;2655645;87;20148;-89
2022/06/17 02:19:46;;;;;;;;;;;;;;;15.16;79.59;100761.99;2639024;87;20111;-88
2022/06/17 02:23:47;;;;;;;;;;;;;;;15.14;79.58;100769.34;2671934;86;20127;-88
2022/06/17 02:27:51;;;;;;;;;;;;;;;15.09;79.76;100778.28;2670226;87;20625;-86
2022/06/17 02:31:53;;;;;;;;;;;;;;;14.96;80.86;100785.27;2675751;87;20173;-87
2022/06/17 02:36:01;;;;;;;;;;;;;;;14.95;80.54;100792.48;2633978;88;20108;-88
2022/06/17 02:40:04;;;;;;;;;;;;;;;14.78;81.47;100793.19;2587826;89;20182;-87
2022/06/17 02:44:14;;;;;;;;;;;;;;;14.68;82.06;100804.70;2666581;87;20132;-87
2022/06/17 02:48:23;;;;;;;;;;;;;;;14.62;82.29;100809.76;2693397;86;20108;-87
2022/06/17 02:52:36;;;;;;;;;;;;;;;14.56;82.64;100810.67;2671595;87;20132;-86
2022/06/17 02:56:37;;;;;;;;;;;;;;;14.49;83.65;100812.23;2678245;87;20534;-88
2022/06/17 03:00:38;;;;;;;;;;;;;;;14.39;84.79;100813.55;2664535;88;20147;-88
2022/06/17 03:04:42;;;;;;;;;;;;;;;14.36;85.78;100817.84;2679500;86;20136;-88
2022/06/17 03:08:46;;;;;;;;;;;;;;;14.38;86.40;100827.05;2678945;87;20163;-88
2022/06/17 03:12:51;;;;;;;;;;;;;;;14.36;86.88;100829.89;2641972;87;20116;-87
2022/06/17 03:16:54;;;;;;;;;;;;;;;14.41;86.68;100838.81;2670596;87;20121;-87
2022/06/17 03:20:56;;;;;;;;;;;;;;;14.53;85.92;100844.90;2648805;87;20119;-87
2022/06/17 03:25:01;;;;;;;;;;;;;;;14.70;85.27;100846.91;2647497;88;20207;-88
2022/06/17 03:29:02;;;;;;;;;;;;;;;14.83;84.84;100853.35;2670934;86;20134;-88
2022/06/17 03:33:19;;;;;;;;;;;;;;;15.06;84.28;100860.28;2658978;87;20187;-88
2022/06/17 03:37:42;;;;;;;;;;;;;;;15.16;84.08;100854.92;2676827;87;20102;-88
2022/06/17 03:41:53;;;;;;;;;;;;;;;15.36;84.13;100862.45;2655205;86;20130;-88
2022/06/17 03:46:02;;;;;;;;;;;;;;;15.54;83.49;100861.22;2670762;87;20272;-89
2022/06/17 03:50:05;;;;;;;;;;;;;;;15.54;83.04;100869.26;2649977;88;20601;-88
2022/06/17 03:54:13;;;;;;;;;;;;;;;15.55;83.37;100874.97;2689714;85;20137;-88
2022/06/17 03:58:16;;;;;;;;;;;;;;;15.70;83.63;100876.70;2687331;87;20133;-88
2022/06/17 04:02:18;;;;;;;;;;;;;;;15.87;83.73;100883.64;2692645;86;20401;-88
2022/06/17 04:06:25;;;;;;;;;;;;;;;16.02;84.09;100882.22;2669647;88;20146;-89
2022/06/17 04:10:28;;;;;;;;;;;;;;;16.18;83.87;100890.97;2675212;87;20164;-89
2022/06/17 04:14:49;;;;;;;;;;;;;;;16.37;83.87;100886.02;2651663;87;20132;-88
2022/06/17 04:18:50;;;;;;;;;;;;;;;16.53;83.13;100887.22;2656953;87;20126;-88
2022/06/17 04:22:54;;;;;;;;;;;;;;;16.75;81.84;100889.95;2676878;87;20135;-88
2022/06/17 04:26:59;;;;;;;;;;;;;;;17.52;82.24;100887.31;2675180;87;20157;-87
2022/06/17 04:31:03;;;;;;;;;;;;;;;18.50;76.64;100890.73;2697823;85;20118;-86
2022/06/17 04:35:06;;;;;;;;;;;;;;;19.51;73.60;100895.61;2692280;85;20194;-87
2022/06/17 04:39:16;;;;;;;;;;;;;;;20.33;69.64;100888.33;2677971;87;20133;-87
2022/06/17 04:43:41;;;;;;;;;;;;;;;20.96;66.02;100888.34;2690086;86;20114;-88
2022/06/17 04:47:43;;;;;;;;;;;;;;;21.50;65.40;100887.91;2648342;86;20106;-86
2022/06/17 04:51:45;;;;;;;;;;;;;;;22.15;62.36;100885.22;2698738;86;20092;-88
2022/06/17 04:55:46;;;;;;;;;;;;;;;22.61;61.95;100881.44;2699459;85;20116;-88
2022/06/17 04:59:48;;;;;;;;;;;;;;;23.06;62.37;100875.86;2664095;87;20130;-88
2022/06/17 05:03:49;;;;;;;;;;;;;;;23.40;58.95;100883.81;2700373;86;20423;-90
2022/06/17 05:07:51;;;;;;;;;;;;;;;23.91;58.89;100877.27;2648725;87;20129;-89
2022/06/17 05:12:08;;;;;;;;;;;;;;;24.12;57.65;100871.95;2667835;87;20120;-89
2022/06/17 05:16:12;;;;;;;;;;;;;;;24.36;57.02;100859.19;2640697;87;20133;-89
2022/06/17 05:20:21;;;;;;;;;;;;;;;24.39;55.38;100853.38;2685561;87;20112;-89
2022/06/17 05:24:22;;;;;;;;;;;;;;;24.53;56.19;100851.53;2664293;87;20121;-89
2022/06/17 05:28:23;;;;;;;;;;;;;;;24.57;54.55;100855.19;2662757;87;20116;-89
2022/06/17 05:32:24;;;;;;;;;;;;;;;24.51;54.23;100856.84;2688585;87;20616;-87
2022/06/17 05:36:25;;;;;;;;;;;;;;;24.28;54.58;100857.20;2646458;88;20092;-88
2022/06/17 05:40:26;;;;;;;;;;;;;;;24.19;53.93;100856.00;2674368;85;20133;-88
2022/06/17 05:44:27;;;;;;;;;;;;;;;24.38;54.51;100867.16;2632516;88;20153;-88
2022/06/17 05:48:28;;;;;;;;;;;;;;;24.43;53.39;100859.76;2585971;89;20654;-87
2022/06/17 05:52:29;;;;;;;;;;;;;;;24.68;52.92;100858.14;2678509;87;20190;-89
2022/06/17 06:08:12;;;;;;;1.57;1.30;;;;;;;24.70;52.09;100867.98;3029153;77;22853;-61
2022/06/17 06:16:19;;;;;;;1.87;1.00;;;;;;;24.54;53.18;100886.34;2811988;83;21082;-83
2022/06/17 06:20:23;;;;;;;7.10;2.30;;;;;;;24.46;52.22;100886.00;2740740;83;21031;-82
2022/06/17 06:24:26;;;;;;;4.65;1.55;;;;;;;24.60;53.02;100887.41;2726285;84;21011;-82
2022/06/17 06:28:28;;;;;;;3.70;1.22;;;;;;;24.46;51.10;100893.33;2802817;83;21027;-83
2022/06/17 06:32:31;;;;;;;3.25;1.72;;;;;;;24.32;51.23;100898.70;2799712;82;21026;-82
2022/06/17 06:36:32;;;;;;;4.92;1.37;;;;;;;24.20;51.25;100906.59;2791749;82;21074;-83
2022/06/17 06:40:40;;;;;;;7.65;1.87;;;;;;;23.88;52.33;100902.63;2754798;83;21022;-81
2022/06/17 06:44:45;;;;;;;3.40;1.50;;;;;;;23.62;53.14;100906.84;2798057;84;21064;-83
2022/06/17 06:48:49;;;;;;;4.70;1.22;;;;;;;23.45;54.77;100894.91;2794132;83;21034;-82
2022/06/17 06:52:51;;;;;;;1.95;1.32;;;;;;;23.24;54.22;100904.73;2777087;84;21075;-82
2022/06/17 06:57:00;;;;;;;2.75;1.40;;;;;;;23.33;54.77;100908.69;2780274;83;21046;-83
2022/06/17 07:01:00;;;;;;;2.90;1.52;;;;;;;22.85;56.52;100920.93;2779682;84;21655;-82
2022/06/17 07:05:04;;;;;;;4.10;1.35;;;;;;;22.43;56.75;100925.20;2783673;83;21047;-83
2022/06/17 07:09:05;;;;;;;2.55;1.57;;;;;;;22.37;56.92;100930.33;2772760;83;21022;-81
2022/06/17 07:13:09;;;;;;;2.50;1.62;;;;;;;22.54;56.20;100924.73;2769357;83;20995;-81
2022/06/17 07:17:14;;;;;;;4.92;1.45;;;;;;;22.81;57.41;100923.17;2795361;84;21014;-81
2022/06/17 07:21:16;;;;;;;6.12;1.45;;;;;;;22.65;56.14;100926.11;2777035;84;21640;-81
2022/06/17 07:25:21;;;;;;;3.77;1.30;;;;;;;22.36;57.78;100936.78;2801126;84;20999;-81
2022/06/17 07:29:22;;;;;;;2.52;1.47;;;;;;;22.62;57.06;100938.20;2804120;83;21034;-80
2022/06/17 07:33:27;;;;;;;2.27;0.93;;;;;;;22.57;56.00;100931.66;2746596;83;21643;-81
2022/06/17 07:41:50;;;;;;;3.45;1.65;;;;;;;23.44;55.32;100921.73;2811736;83;21023;-81
2022/06/17 07:45:51;;;;;;;1.55;1.22;;;;;;;23.41;54.27;100933.49;2795220;84;21020;-84
2022/06/17 07:49:53;;;;;;;2.92;1.12;;;;;;;23.44;55.86;100917.66;2815988;83;21023;-85
2022/06/17 07:53:54;;;;;;;2.22;1.50;;;;;;;23.54;54.63;100928.19;2807726;83;21503;-81
2022/06/17 07:57:55;;;;;;;8.95;1.52;;;;;;;23.36;55.77;100943.58;2804613;83;21007;-83
2022/06/17 08:01:56;;;;;;;1.92;1.20;;;;;;;23.02;54.90;100939.69;2789708;84;21032;-82
2022/06/17 08:06:01;;;;;;;2.22;1.30;;;;;;;22.68;55.68;100936.07;2790042;83;21045;-82
2022/06/17 08:10:02;;;;;;;3.22;1.45;;;;;;;22.70;57.11;100932.33;2795070;83;21019;-82
2022/06/17 08:14:03;;;;;;;1.52;1.42;;;;;;;22.67;57.71;100934.89;2770969;84;21097;-82
2022/06/17 08:18:05;;;;;;;4.97;1.70;;;;;;;22.99;55.91;100932.76;2726512;85;21046;-82
2022/06/17 08:22:06;;;;;;;6.28;1.52;;;;;;;23.40;54.99;100936.74;2769648;83;21049;-82
2022/06/17 08:26:07;;;;;;;2.12;1.55;;;;;;;23.74;56.24;100931.05;2812518;83;21017;-82
2022/06/17 08:30:11;;;;;;;2.75;1.25;;;;;;;23.44;54.28;100946.17;2811579;84;21021;-82
2022/06/17 08:34:12;;;;;;;15.80;2.42;;;;;;;23.07;53.89;100945.36;2797730;83;21050;-82
2022/06/17 08:38:30;;;;;;;1.80;1.22;;;;;;;22.87;55.57;100941.92;2780587;84;21043;-82
2022/06/17 08:43:17;;;;;;;3.02;1.45;;;;;;;22.76;55.12;100947.33;2784941;83;21430;-82
2022/06/17 08:47:43;;;;;;;3.17;1.50;;;;;;;23.46;53.58;100958.17;2718911;86;21161;-82
2022/06/17 08:52:07;;;;;;;;;;;;;;;23.45;53.93;100955.99;2687555;86;21096;-82
2022/06/17 08:56:29;;;;;;;2.47;1.37;;;;;;;23.25;54.47;100950.33;2665148;87;20126;-82
2022/06/17 09:00:51;;;;;;;1.32;0.93;;;;;;;23.47;53.91;100953.06;2654140;87;21008;-82
2022/06/17 09:05:42;;;;;;;4.62;1.50;;;;;;;23.45;52.60;100955.14;2671228;88;21641;-82
2022/06/17 09:09:57;;;;;;;2.15;1.32;;;;;;;23.82;54.23;100962.14;2656545;88;21081;-82
2022/06/17 09:14:20;;;;;;;;;;;;;;;24.00;51.40;100961.31;2680664;87;21047;-82
2022/06/17 09:18:34;;;;;;;3.77;1.20;;;;;;;23.94;51.66;100954.29;2681909;86;20123;-82
2022/06/17 09:22:41;;;;;;;2.27;1.60;;;;;;;23.95;52.76;100961.40;2710259;85;21023;-82
2022/06/17 09:27:02;;;;;;;1.00;0.80;;;;;;;23.94;51.54;100956.16;2813211;83;20998;-82
2022/06/17 09:31:11;;;;;;;2.27;1.07;;;;;;;23.62;52.44;100960.62;2790745;83;21086;-82
2022/06/17 09:35:36;;;;;;;3.10;1.27;;;;;;;23.44;53.17;100965.17;2826650;83;21000;-82
2022/06/17 09:39:43;;;;;;;2.52;1.40;;;;;;;23.68;51.92;100952.20;2826805;83;21058;-82
2022/06/17 09:43:49;;;;;;;1.40;0.93;;;;;;;24.05;52.09;100950.20;2822581;83;21074;-82
2022/06/17 09:47:59;;;;;;;1.42;0.75;;;;;;;24.18;51.38;100952.70;2825675;83;21031;-82
2022/06/17 09:52:11;;;;;;;3.37;0.98;;;;;;;24.51;51.62;100948.78;2837060;83;21015;-82
2022/06/17 09:56:24;;;;;;;1.60;1.15;;;;;;;24.67;50.81;100954.39;2828343;83;21019;-82
2022/06/17 10:00:44;;;;;;;2.70;0.88;;;;;;;24.85;48.89;100950.30;2841790;83;21019;-82
2022/06/17 10:04:45;;;;;;;13.78;3.20;;;;;;;25.26;47.89;100947.66;2821304;83;21032;-82
2022/06/17 10:08:55;;;;;;;3.92;0.90;;;;;;;25.10;49.19;100949.20;2827373;83;21002;-82
2022/06/17 10:13:26;;;;;;;3.77;1.95;;;;;;;24.84;48.51;100943.17;2794582;84;21030;-82
2022/06/17 10:22:25;;;;;;;2.33;1.32;;;;;;;24.42;50.90;100954.59;2797074;83;21050;-82
2022/06/17 10:27:10;;;;;;;1.82;1.10;;;;;;;24.43;50.59;100944.86;2781190;84;20983;-82
2022/06/17 10:31:29;;;;;;;1.77;0.75;;;;;;;24.85;50.86;100944.00;2797051;84;21027;-82
2022/06/17 10:35:33;;;;;;;1.92;1.27;;;;;;;25.37;48.34;100946.52;2799429;83;21071;-82
2022/06/17 10:39:37;;;;;;;3.62;1.42;;;;;;;25.30;48.86;100944.83;2781357;84;21055;-82
2022/06/17 10:43:48;;;;;;;2.15;0.95;;;;;;;25.29;50.15;100943.15;2804580;84;21047;-85
2022/06/17 10:48:04;;;;;;;5.50;1.32;;;;;;;25.55;47.85;100945.59;2796388;83;21026;-82
2022/06/17 10:52:11;;;;;;;2.33;1.25;;;;;;;25.77;47.93;100952.53;2807168;84;20996;-83
2022/06/17 10:56:24;;;;;;;4.08;1.42;;;;;;;25.88;48.72;100944.23;2780357;83;21011;-82
2022/06/17 11:00:27;;;;;;;3.40;1.27;;;;;;;26.00;47.18;100943.56;2785437;84;21025;-82
2022/06/17 11:04:34;;;;;;;2.22;1.20;;;;;;;26.02;47.83;100942.31;2794063;83;21503;-90
2022/06/17 11:08:41;;;;;;;1.57;1.15;;;;;;;25.83;48.23;100943.19;2770090;84;21125;-82
2022/06/17 11:12:59;;;;;;;3.00;1.05;;;;;;;25.98;47.59;100941.58;2782843;83;21356;-83
2022/06/17 11:17:03;;;;;;;1.70;1.22;;;;;;;26.20;47.85;100929.93;2818212;83;21051;-82
2022/06/17 11:21:09;;;;;;;1.85;1.10;;;;;;;26.42;47.65;100931.01;2799294;83;21076;-84
2022/06/17 11:25:30;;;;;;;3.15;1.57;;;;;;;26.57;46.33;100922.55;2794919;83;21015;-83
2022/06/17 11:29:45;;;;;;;1.52;1.10;;;;;;;26.71;46.25;100928.25;2765947;85;21090;-82
2022/06/17 11:33:58;;;;;;;2.80;0.80;;;;;;;26.74;45.34;100923.72;2760001;85;21043;-83
2022/06/17 11:38:02;;;;;;;1.77;1.17;;;;;;;26.19;46.20;100929.63;2743817;85;21015;-83
2022/06/17 11:42:20;;;;;;;2.15;1.32;;;;;;;26.24;44.97;100921.63;2744682;85;21055;-83
2022/06/17 11:46:28;;;;;;;1.92;0.68;;;;;;;26.30;43.94;100922.13;2734780;85;21056;-83
2022/06/17 11:50:35;;;;;;;2.25;1.22;;;;;;;26.35;45.74;100911.43;2720790;85;21051;-83
2022/06/17 11:54:50;;;;;;;6.78;1.62;;;;;;;26.26;45.41;100913.25;2744675;85;21021;-83
2022/06/17 11:59:02;;;;;;;0.80;0.80;;;;;;;26.16;46.86;100897.31;2738936;85;21031;-83
2022/06/17 12:03:03;;;;;;;1.25;0.80;;;;;;;26.36;46.07;100907.64;2728953;85;20996;-83
2022/06/17 12:07:28;;;;;;;2.45;0.60;;;;;;;26.76;44.24;100896.22;2808067;84;21015;-83
2022/06/17 12:11:38;;;;;;;2.43;1.60;;;;;;;27.06;43.81;100898.36;2729035;85;21063;-83
2022/06/17 12:15:54;;;;;;;1.50;1.07;;;;;;;27.14;44.65;100877.63;2733557;85;20989;-83
2022/06/17 12:19:58;;;;;;;1.05;0.50;;;;;;;27.27;43.38;100888.11;2718022;85;21632;-83
2022/06/17 12:24:13;;;;;;;3.17;1.00;;;;;;;27.27;43.24;100881.28;2729427;85;21150;-83
2022/06/17 12:28:30;;;;;;;2.98;0.75;;;;;;;27.43;44.06;100875.81;2748027;85;21087;-84
2022/06/17 12:32:49;;;;;;;0.93;0.88;;;;;;;27.63;43.11;100875.64;2693761;86;21047;-83
2022/06/17 12:37:01;;;;;;;1.77;0.95;;;;;;;27.50;42.91;100884.22;2763798;85;21097;-84
2022/06/17 12:41:13;;;;;;;1.32;1.10;;;;;;;27.63;43.96;100872.91;2743378;85;21642;-90
2022/06/17 12:45:36;;;;;;;2.47;0.95;;;;;;;27.85;43.07;100884.77;2797913;83;21011;-84
2022/06/17 12:55:27;;;;;;;1.72;1.47;;;;;;;27.21;41.35;100878.39;2771246;84;21036;-83
2022/06/17 13:00:06;;;;;;;6.22;1.40;;;;;;;27.12;42.31;100885.20;2762583;84;21795;-82
2022/06/17 13:04:16;;;;;;;1.82;1.00;;;;;;;27.31;42.91;100871.58;2764688;84;21069;-81
2022/06/17 13:08:49;;;;;;;1.20;1.10;;;;;;;27.59;41.74;100871.14;2781635;83;21661;-93
2022/06/17 13:13:22;;;;;;;2.70;0.82;;;;;;;27.72;41.33;100856.53;2763304;83;21009;-82
2022/06/17 13:17:34;;;;;;;3.70;1.12;;;;;;;27.69;41.94;100867.89;2687249;87;21074;-83
2022/06/17 13:22:17;;;;;;;3.40;0.82;;;;;;;27.69;40.73;100861.61;2691036;86;21037;-86
2022/06/17 13:26:48;;;;;;;2.98;1.17;;;;;;;27.89;41.79;100857.27;2608946;89;21057;-84
2022/06/17 13:30:55;;;;;;;10.82;1.22;;;;;;;27.82;41.02;100841.49;2559808;90;21164;-86
2022/06/17 13:35:04;;;;;;;2.85;0.82;;;;;;;28.01;40.96;100845.08;2526727;92;21039;-87
2022/06/17 13:39:14;;;;;;;1.42;1.25;;;;;;;28.18;41.58;100846.67;2587647;90;21019;-83
2022/06/17 13:43:27;;;;;;;2.25;1.02;;;;;;;28.19;39.68;100838.77;2576129;89;21122;-82
2022/06/17 13:47:56;;;;;;;2.33;0.98;;;;;;;28.22;41.03;100838.30;2588223;90;21368;-82
2022/06/17 13:52:23;;;;;;;2.72;1.42;;;;;;;28.29;41.80;100822.63;2512861;91;21063;-93
2022/06/17 13:56:33;;;;;;;2.20;0.75;;;;;;;28.38;41.63;100823.14;2644247;88;21087;-83
2022/06/17 14:00:40;;;;;;;4.20;1.02;;;;;;;28.35;39.66;100831.30;2712224;85;21037;-82
2022/06/17 14:05:11;;;;;;;1.12;0.90;;;;;;;28.45;39.38;100829.38;2726665;85;21019;-83
2022/06/17 14:09:36;;;;;;;2.20;0.90;;;;;;;28.48;39.33;100815.74;2717416;86;21000;-83
2022/06/17 14:13:37;;;;;;;2.12;1.45;;;;;;;28.30;40.68;100821.59;2682044;85;21027;-83
2022/06/17 14:17:55;;;;;;;3.00;0.70;;;;;;;28.07;40.69;100818.17;2807281;83;21035;-83
2022/06/17 14:21:58;;;;;;;1.47;0.70;;;;;;;28.15;40.45;100814.29;2780988;83;20967;-83
2022/06/17 14:26:02;;;;;;;1.35;1.25;;;;;;;28.21;39.82;100812.87;2763328;84;21012;-83
2022/06/17 14:30:20;;;;;;;2.00;0.95;;;;;;;28.06;40.71;100824.16;2790901;84;21011;-84
2022/06/17 14:34:42;;;;;;;1.72;1.10;;;;;;;28.16;40.59;100815.98;2780750;84;21005;-83
2022/06/17 14:38:57;;;;;;;1.32;1.07;;;;;;;28.20;40.61;100807.62;2771392;84;21047;-87
2022/06/17 14:43:02;;;;;;;;;;;;;;;28.31;39.94;100806.00;2783515;82;21551;-82
2022/06/17 14:47:23;;;;;;;1.03;0.87;;;;;;;28.35;39.52;100809.41;2763351;83;20090;-83
2022/06/17 14:51:42;;;;;;;2.62;1.00;;;;;;;28.31;40.67;100812.31;2730752;86;21008;-83
2022/06/17 14:56:12;;;;;;;1.40;0.80;;;;;;;28.32;40.48;100812.62;2728518;86;21078;-83
2022/06/17 15:00:18;;;;;;;1.05;0.70;;;;;;;28.34;40.15;100803.64;2727049;86;21083;-82
2022/06/17 15:04:41;;;;;;;4.12;1.25;;;;;;;28.24;41.18;100813.47;2668240;87;21091;-82
2022/06/17 15:08:47;;;;;;;2.85;1.02;;;;;;;28.18;41.20;100803.73;2673516;86;21055;-82
2022/06/17 15:13:04;;;;;;;3.35;0.90;;;;;;;28.18;41.20;100803.73;2737858;85;21493;-82
2022/06/17 15:17:17;;;;;;;1.82;0.95;;;;;;;28.17;41.24;100806.72;2744649;84;21075;-83
2022/06/17 15:21:24;;;;;;;1.05;0.78;;;;;;;27.99;41.11;100804.28;2726685;85;21055;-82
2022/06/17 15:25:33;;;;;;;3.58;1.67;;;;;;;27.96;41.65;100803.89;2716173;85;21036;-83
2022/06/17 15:29:34;;;;;;;2.65;0.95;;;;;;;27.95;41.83;100804.45;2758163;85;21033;-83
2022/06/17 15:33:38;;;;;;;1.70;1.40;;;;;;;27.97;42.05;100796.84;2753248;85;21011;-83
2022/06/17 15:37:41;;;;;;;2.37;1.12;;;;;;;27.92;41.88;100799.44;2745641;85;21089;-82
2022/06/17 15:42:05;;;;;;;2.45;1.15;;;;;;;27.93;40.58;100794.27;2754229;84;21524;-83
2022/06/17 15:46:15;;;;;;;1.15;1.05;;;;;;;27.73;41.19;100757.09;2756448;84;21000;-83
2022/06/17 15:50:17;;;;;;;2.42;1.30;;;;;;;27.91;41.09;100805.42;2813148;83;21023;-84
2022/06/17 15:54:22;;;;;;;3.83;1.65;;;;;;;27.84;41.09;100795.63;2810491;83;21024;-83
2022/06/17 15:58:34;;;;;;;3.05;0.78;;;;;;;27.83;41.63;100793.97;2793486;84;21031;-83
2022/06/17 16:02:39;;;;;;;1.45;0.78;;;;;;;27.85;41.81;100795.42;2782703;82;21087;-83
2022/06/17 16:06:45;;;;;;;1.87;0.95;;;;;;;27.75;41.63;100791.86;2794319;83;21019;-82
2022/06/17 16:10:52;;;;;;;2.95;1.15;;;;;;;27.63;41.25;100784.11;2694907;86;21009;-83
2022/06/17 16:15:13;;;;;;;1.92;0.98;;;;;;;27.57;41.43;100778.20;2698881;85;21140;-84
2022/06/17 16:19:21;;;;;;;7.10;2.12;;;;;;;27.57;41.43;100778.20;2818215;83;21007;-84
2022/06/17 16:23:39;;;;;;;0.65;0.65;;;;;;;27.57;42.66;100780.38;2781016;83;20936;-83
2022/06/17 16:27:55;;;;;;;1.85;0.85;;;;;;;27.60;41.71;100785.38;2816076;83;21054;-83
2022/06/17 16:32:08;;;;;;;1.42;0.80;;;;;;;27.57;41.92;100776.83;2812219;83;21075;-83
2022/06/17 16:36:12;;;;;;;6.10;1.12;;;;;;;27.55;41.71;100784.42;2800030;85;21042;-85
2022/06/17 16:44:46;;;;;;;0.95;0.80;;;;;;;27.43;41.35;100778.30;2833262;83;21090;-84
2022/06/17 16:48:48;;;;;;;0.78;0.75;;;;;;;27.32;41.92;100782.61;2820722;83;21039;-83
2022/06/17 16:52:55;;;;;;;1.60;1.10;;;;;;;27.22;42.42;100788.59;2827862;83;21011;-84
2022/06/17 16:56:59;;;;;;;1.62;1.35;;;;;;;27.17;43.15;100784.34;2815114;83;21055;-84
2022/06/17 17:01:01;;;;;;;1.45;1.00;;;;;;;27.11;43.12;100782.48;2821702;83;20988;-84
2022/06/17 17:05:02;;;;;;;2.25;1.35;;;;;;;27.07;42.65;100782.64;2836409;83;21065;-86
2022/06/17 17:09:05;;;;;;;1.22;0.70;;;;;;;27.05;43.16;100780.66;2795056;83;21062;-83
2022/06/17 17:13:06;;;;;;;2.20;0.93;;;;;;;26.99;43.02;100781.57;2759918;83;21554;-85
2022/06/17 17:17:08;;;;;;;1.17;0.85;;;;;;;26.94;43.42;100780.86;2771669;83;21044;-83
2022/06/17 17:21:14;;;;;;;3.95;1.37;;;;;;;26.92;43.59;100781.11;2803221;83;20981;-83
2022/06/17 17:25:37;;;;;;;2.30;1.17;;;;;;;26.92;42.92;100781.62;2786108;83;21080;-84
2022/06/17 17:29:39;;;;;;;1.12;1.02;;;;;;;26.92;44.51;100778.38;2756772;84;21016;-84
2022/06/17 17:33:42;;;;;;;1.25;0.90;;;;;;;26.85;44.74;100783.03;2795526;84;21029;-84
2022/06/17 17:37:43;;;;;;;1.25;1.00;;;;;;;26.84;45.11;100779.97;2796561;83;20993;-83
2022/06/17 17:41:45;;;;;;;1.40;1.12;;;;;;;26.79;45.20;100786.63;2797778;83;20977;-84
2022/06/17 17:45:49;;;;;;;2.22;0.98;;;;;;;26.74;45.27;100794.11;2802908;83;21049;-83
2022/06/17 17:49:55;;;;;;;1.80;1.25;;;;;;;26.72;45.91;100792.65;2785071;83;21108;-82
2022/06/17 17:53:56;;;;;;;46.90;6.47;;;;;;;26.65;46.13;100789.45;2774215;85;21020;-85
2022/06/17 17:57:59;;;;;;;43.78;8.90;;;;;;;26.66;46.67;100792.48;2796572;83;21096;-83
2022/06/17 18:02:01;;;;;;;18.27;3.37;;;;;;;26.65;48.64;100790.00;2785994;83;21082;-83
2022/06/17 18:06:02;;;;;;;2.52;1.00;;;;;;;26.62;49.12;100796.72;2815240;83;21076;-84
2022/06/17 18:10:05;;;;;;;3.02;1.87;;;;;;;26.57;49.65;100802.00;2810032;83;21444;-85
2022/06/17 18:14:14;;;;;;;3.87;1.37;;;;;;;26.48;50.18;100791.88;2797761;83;21560;-85
2022/06/17 18:18:18;;;;;;;2.40;1.30;;;;;;;26.36;50.90;100790.90;2795022;83;21068;-85
2022/06/17 18:22:21;;;;;;;2.22;1.15;;;;;;;26.22;51.14;100787.42;2795296;83;21015;-84
2022/06/17 18:26:30;;;;;;;3.00;1.55;;;;;;;26.07;50.92;100788.50;2768237;83;21467;-83
2022/06/17 18:30:34;;;;;;;2.58;1.55;;;;;;;25.95;50.72;100795.16;2794903;83;21410;-82
2022/06/17 18:34:39;;;;;;;2.62;1.30;;;;;;;25.82;50.77;100792.48;2785580;84;21037;-82
2022/06/17 18:38:42;;;;;;;3.27;1.20;;;;;;;25.66;51.59;100800.09;2782819;84;21111;-83
2022/06/17 18:42:45;;;;;;;2.83;1.87;;;;;;;25.45;51.80;100801.15;2720759;85;21090;-87
2022/06/17 18:46:46;;;;;;;1.95;1.77;;;;;;;25.26;52.69;100799.30;2786775;83;21015;-81
2022/06/17 18:50:49;;;;;;;9.65;3.40;;;;;;;24.92;53.28;100800.13;2790272;82;21067;-86
2022/06/17 18:54:51;;;;;;;23.57;5.28;;;;;;;24.60;53.34;100794.95;2750858;83;21021;-85
2022/06/17 18:58:52;;;;;;;18.62;3.40;;;;;;;24.36;53.77;100798.56;2761804;85;21066;-86
2022/06/17 19:02:56;;;;;;;4.25;1.95;;;;;;;24.16;53.95;100807.49;2753861;85;21082;-85
2022/06/17 19:06:58;;;;;;;4.10;1.50;;;;;;;23.99;54.80;100806.98;2744320;85;21585;-92
2022/06/17 19:19:42;;;;;;;4.47;1.98;;;;;;;23.34;56.47;100814.86;2750019;84;21070;-84
2022/06/17 19:23:45;;;;;;;3.35;1.50;;;;;;;23.08;57.44;100823.06;2740020;85;21027;-83
2022/06/17 19:27:47;;;;;;;3.65;1.70;;;;;;;22.88;57.65;100820.19;2757281;84;21140;-83
2022/06/17 19:31:50;;;;;;;1.80;1.57;;;;;;;22.67;57.75;100819.66;2724479;85;21521;-84
2022/06/17 19:35:57;;;;;;;2.47;1.77;;;;;;;22.48;58.32;100830.10;2751630;85;21025;-82
2022/06/17 19:39:58;;;;;;;3.02;1.75;;;;;;;22.29;58.93;100834.74;2822214;83;21022;-81
2022/06/17 19:44:02;;;;;;;1.75;1.65;;;;;;;22.10;59.37;100834.30;2815141;83;21074;-81
2022/06/17 19:48:03;;;;;;;2.15;1.95;;;;;;;21.96;59.81;100833.30;2789157;83;21042;-81
2022/06/17 19:52:34;;;;;;;2.60;2.40;;;;;;;21.80;60.35;100838.41;2833081;83;21062;-88
2022/06/17 19:56:43;;;;;;;2.70;2.40;;;;;;;21.65;60.94;100846.00;2804967;82;21050;-85
2022/06/17 20:00:47;;;;;;;3.02;2.05;;;;;;;21.44;61.31;100839.09;2783782;84;21038;-85
2022/06/17 20:04:51;;;;;;;4.58;2.20;;;;;;;21.29;61.90;100851.24;2776177;84;21045;-86
2022/06/17 20:08:52;;;;;;;2.62;2.17;;;;;;;21.15;62.35;100844.25;2782565;83;21031;-82
2022/06/17 20:12:57;;;;;;;3.15;2.35;;;;;;;21.01;62.65;100843.68;2800078;83;21057;-82
2022/06/17 20:16:59;;;;;;;1.67;1.57;;;;;;;20.93;62.73;100847.29;2800885;83;21083;-91
2022/06/17 20:21:00;;;;;;;2.02;1.47;;;;;;;20.82;62.76;100840.44;2774590;84;21034;-83
2022/06/17 20:25:05;;;;;;;3.05;2.42;;;;;;;20.75;63.17;100838.11;2803419;83;21039;-83
2022/06/17 20:29:14;;;;;;;2.95;2.65;;;;;;;20.68;63.51;100844.23;2791208;83;21019;-82
2022/06/17 20:33:15;;;;;;;48.50;7.85;;;;;;;20.65;63.36;100836.98;2781217;83;21715;-83